createdAt,value
2022-11-25T00:02:25.353Z,17.17
2022-11-25T00:04:51.885Z,14.55
2022-11-25T00:07:18.462Z,22.73
2022-11-25T00:09:45.041Z,11.32
2022-11-25T00:12:11.509Z,18.38
2022-11-25T00:14:38.070Z,12.30
2022-11-25T00:17:04.593Z,14.82
2022-11-25T00:19:31.194Z,22.50
2022-11-25T00:21:57.647Z,17.90
2022-11-25T00:24:24.100Z,21.83
2022-11-25T00:26:50.576Z,20.23
2022-11-25T00:29:17.043Z,14.57
2022-11-25T00:31:43.792Z,20.53
2022-11-25T00:34:13.266Z,18.13
2022-11-25T00:36:40.020Z,20.60
2022-11-25T00:39:11.651Z,19.83
2022-11-25T00:41:57.239Z,21.25
2022-11-25T00:44:37.035Z,14.47
2022-11-25T00:47:05.064Z,18.25
2022-11-25T00:49:32.662Z,15.00
2022-11-25T00:51:59.734Z,17.17
2022-11-25T00:54:26.233Z,26.70
2022-11-25T00:56:52.722Z,13.83
2022-11-25T00:59:19.293Z,15.60
2022-11-25T01:01:46.225Z,13.77
2022-11-25T01:04:13.089Z,17.23
2022-11-25T01:06:39.563Z,16.35
2022-11-25T01:09:07.446Z,14.97
2022-11-25T01:11:34.305Z,18.88
2022-11-25T01:14:01.838Z,19.60
2022-11-25T01:16:29.740Z,13.60
2022-11-25T01:18:57.565Z,14.57
2022-11-25T01:21:27.196Z,18.93
2022-11-25T01:23:55.152Z,19.08
2022-11-25T01:26:23.802Z,19.98
2022-11-25T01:28:58.006Z,21.05
2022-11-25T01:31:26.552Z,22.52
2022-11-25T01:33:56.171Z,21.23
2022-11-25T01:36:23.523Z,17.40
2022-11-25T01:38:52.521Z,16.55
2022-11-25T01:41:19.868Z,14.77
2022-11-25T01:44:27.860Z,18.10
2022-11-25T01:47:00.112Z,15.40
2022-11-25T01:49:31.927Z,12.70
2022-11-25T01:52:21.048Z,14.75
2022-11-25T01:55:08.118Z,18.10
2022-11-25T01:57:47.592Z,13.32
2022-11-25T02:00:15.695Z,10.80
2022-11-25T02:02:42.920Z,15.07
2022-11-25T02:05:13.482Z,18.80
2022-11-25T02:07:43.433Z,20.52
2022-11-25T02:10:18.128Z,15.38
2022-11-25T02:12:46.621Z,22.70
2022-11-25T02:15:15.175Z,16.55
2022-11-25T02:17:43.215Z,16.77
2022-11-25T02:20:11.308Z,16.23
2022-11-25T02:22:50.023Z,13.20
2022-11-25T02:25:22.439Z,16.00
2022-11-25T02:27:53.074Z,18.27
2022-11-25T02:30:19.691Z,16.65
2022-11-25T02:32:48.186Z,12.10
2022-11-25T02:35:25.340Z,23.55
2022-11-25T02:37:53.388Z,18.07
2022-11-25T02:40:19.888Z,13.45
2022-11-25T02:42:49.801Z,18.30
2022-11-25T02:45:22.724Z,18.92
2022-11-25T02:47:49.232Z,15.18
2022-11-25T02:50:15.741Z,16.10
2022-11-25T02:52:42.818Z,17.23
2022-11-25T02:55:09.508Z,20.02
2022-11-25T02:57:35.973Z,17.88
2022-11-25T03:00:02.625Z,18.05
2022-11-25T03:02:29.955Z,18.33
2022-11-25T03:04:56.463Z,14.88
2022-11-25T03:07:23.154Z,17.25
2022-11-25T03:09:49.675Z,20.98
2022-11-25T03:12:18.936Z,11.98
2022-11-25T03:14:45.500Z,23.93
2022-11-25T03:17:12.184Z,21.00
2022-11-25T03:19:38.637Z,17.50
2022-11-25T03:22:05.131Z,18.08
2022-11-25T03:24:32.865Z,18.90
2022-11-25T03:26:59.644Z,19.93
2022-11-25T03:29:26.098Z,23.42
2022-11-25T03:31:52.625Z,19.55
2022-11-25T03:34:19.158Z,13.55
2022-11-25T03:36:45.623Z,19.58
2022-11-25T03:39:12.135Z,20.17
2022-11-25T03:41:38.619Z,18.75
2022-11-25T03:44:05.181Z,21.83
2022-11-25T03:46:31.847Z,19.13
2022-11-25T03:48:58.338Z,8.68
2022-11-25T03:51:24.794Z,19.10
2022-11-25T03:53:51.449Z,21.60
2022-11-25T03:56:17.934Z,14.68
2022-11-25T03:58:44.395Z,17.52
2022-11-25T04:01:11.031Z,20.38
2022-11-25T04:03:37.493Z,17.83
2022-11-25T04:06:04.132Z,18.50
2022-11-25T04:08:30.719Z,7.65
2022-11-25T04:10:57.319Z,15.50
2022-11-25T04:13:23.800Z,12.23
2022-11-25T04:15:50.950Z,17.00
2022-11-25T04:18:19.235Z,15.52
2022-11-25T04:20:46.059Z,13.73
2022-11-25T04:23:13.642Z,15.50
2022-11-25T04:25:40.673Z,16.95
2022-11-25T04:28:07.124Z,20.03
2022-11-25T04:30:34.193Z,16.15
2022-11-25T04:33:01.592Z,16.35
2022-11-25T04:35:28.046Z,14.88
2022-11-25T04:37:54.649Z,19.92
2022-11-25T04:40:21.113Z,18.67
2022-11-25T04:42:47.625Z,16.45
2022-11-25T04:45:24.401Z,19.75
2022-11-25T04:47:51.849Z,12.07
2022-11-25T04:50:21.191Z,15.35
2022-11-25T04:52:47.780Z,10.73
2022-11-25T04:55:14.540Z,15.77
2022-11-25T04:57:41.101Z,13.18
2022-11-25T05:00:09.543Z,6.43
2022-11-25T05:02:36.203Z,15.25
2022-11-25T05:05:02.708Z,15.50
2022-11-25T05:07:29.653Z,12.40
2022-11-25T05:09:56.601Z,16.33
2022-11-25T05:12:26.115Z,20.05
2022-11-25T05:14:53.344Z,14.63
2022-11-25T05:17:22.782Z,19.37
2022-11-25T05:19:50.449Z,17.00
2022-11-25T05:22:21.063Z,19.08
2022-11-25T05:24:47.910Z,17.67
2022-11-25T05:27:15.165Z,21.00
2022-11-25T05:29:41.652Z,14.43
2022-11-25T05:32:08.704Z,20.58
2022-11-25T05:34:35.796Z,16.02
2022-11-25T05:37:02.409Z,13.77
2022-11-25T05:39:29.049Z,13.77
2022-11-25T05:41:55.508Z,14.60
2022-11-25T05:44:23.244Z,15.05
2022-11-25T05:47:00.614Z,13.65
2022-11-25T05:49:27.061Z,17.27
2022-11-25T05:51:53.500Z,16.85
2022-11-25T05:54:19.962Z,15.00
2022-11-25T05:56:46.463Z,13.98
2022-11-25T05:59:12.949Z,14.25
2022-11-25T06:01:39.609Z,17.17
2022-11-25T06:04:06.775Z,14.00
2022-11-25T06:06:33.632Z,19.37
2022-11-25T06:09:00.330Z,9.95
2022-11-25T06:11:27.534Z,8.63
2022-11-25T06:13:56.961Z,19.92
2022-11-25T06:16:23.793Z,10.60
2022-11-25T06:18:50.900Z,12.80
2022-11-25T06:21:17.713Z,16.92
2022-11-25T06:23:46.178Z,11.40
2022-11-25T06:26:20.933Z,13.57
2022-11-25T06:28:48.116Z,7.13
2022-11-25T06:31:17.544Z,17.17
2022-11-25T06:33:47.283Z,9.55
2022-11-25T06:36:17.097Z,18.90
2022-11-25T06:38:45.015Z,16.48
2022-11-25T06:41:11.698Z,18.88
2022-11-25T06:43:38.186Z,9.97
2022-11-25T06:46:06.750Z,14.15
2022-11-25T06:48:33.703Z,14.60
2022-11-25T06:51:02.914Z,11.00
2022-11-25T06:53:30.261Z,10.65
2022-11-25T06:56:11.780Z,13.80
2022-11-25T06:58:39.320Z,19.10
2022-11-25T07:01:08.856Z,15.77
2022-11-25T07:03:35.667Z,13.88
2022-11-25T07:06:02.265Z,12.38
2022-11-25T07:08:33.893Z,19.73
2022-11-25T07:11:06.252Z,9.65
2022-11-25T07:13:32.997Z,14.90
2022-11-25T07:16:04.612Z,15.10
2022-11-25T07:18:32.552Z,14.57
2022-11-25T07:21:07.423Z,19.13
2022-11-25T07:23:35.196Z,17.08
2022-11-25T07:26:12.368Z,9.35
2022-11-25T07:28:39.967Z,10.75
2022-11-25T07:31:31.104Z,10.52
2022-11-25T07:33:58.307Z,9.53
2022-11-25T07:36:25.260Z,14.80
2022-11-25T07:38:52.133Z,11.75
2022-11-25T07:41:21.905Z,12.70
2022-11-25T07:43:53.981Z,17.25
2022-11-25T07:46:26.995Z,13.93
2022-11-25T07:49:00.823Z,10.57
2022-11-25T07:51:33.392Z,12.80
2022-11-25T07:54:01.633Z,16.45
2022-11-25T07:56:29.367Z,18.23
2022-11-25T07:58:57.173Z,11.57
2022-11-25T08:01:24.650Z,12.93
2022-11-25T08:03:51.949Z,12.07
2022-11-25T08:06:21.745Z,11.23
2022-11-25T08:08:49.447Z,16.25
2022-11-25T08:11:19.048Z,10.20
2022-11-25T08:13:46.215Z,12.05
2022-11-25T08:16:14.557Z,13.98
2022-11-25T08:18:41.452Z,13.00
2022-11-25T08:21:10.625Z,11.98
2022-11-25T08:23:38.786Z,10.83
2022-11-25T08:26:07.353Z,9.82
2022-11-25T08:28:34.354Z,9.40
2022-11-25T08:31:11.161Z,19.48
2022-11-25T08:33:37.887Z,9.65
2022-11-25T08:36:05.892Z,12.87
2022-11-25T08:38:32.405Z,15.35
2022-11-25T08:40:59.393Z,12.10
2022-11-25T08:43:29.611Z,12.55
2022-11-25T08:45:56.395Z,11.57
2022-11-25T08:48:22.920Z,12.63
2022-11-25T08:50:54.774Z,9.32
2022-11-25T08:53:22.436Z,8.73
2022-11-25T08:55:49.576Z,11.90
2022-11-25T08:58:16.195Z,15.38
2022-11-25T09:00:44.740Z,17.20
2022-11-25T09:03:12.261Z,7.65
2022-11-25T09:05:40.690Z,13.20
2022-11-25T09:08:07.834Z,8.55
2022-11-25T09:10:35.402Z,16.77
2022-11-25T09:13:01.941Z,10.23
2022-11-25T09:15:28.442Z,13.55
2022-11-25T09:17:59.771Z,12.73
2022-11-25T09:20:27.216Z,12.60
2022-11-25T09:22:53.796Z,15.70
2022-11-25T09:25:21.868Z,12.43
2022-11-25T09:27:48.596Z,13.65
2022-11-25T09:30:15.564Z,9.80
2022-11-25T09:32:42.211Z,11.20
2022-11-25T09:35:08.823Z,16.73
2022-11-25T09:37:35.442Z,15.17
2022-11-25T09:40:01.970Z,13.82
2022-11-25T09:43:01.125Z,15.30
2022-11-25T09:46:37.753Z,12.85
2022-11-25T09:49:31.992Z,10.13
2022-11-25T09:52:04.378Z,15.13
2022-11-25T09:54:44.394Z,15.88
2022-11-25T09:57:40.244Z,13.45
2022-11-25T10:00:14.566Z,10.88
2022-11-25T10:03:05.185Z,9.38
2022-11-25T10:05:37.696Z,15.87
2022-11-25T10:08:11.940Z,13.50
2022-11-25T10:10:47.948Z,11.15
2022-11-25T10:13:27.820Z,13.05
2022-11-25T10:15:58.020Z,10.85
2022-11-25T10:18:38.057Z,8.27
2022-11-25T10:21:05.157Z,10.30
2022-11-25T10:23:35.495Z,11.82
2022-11-25T10:26:16.163Z,12.32
2022-11-25T10:28:56.858Z,11.77
2022-11-25T10:31:36.071Z,3.03
2022-11-25T10:34:16.679Z,13.90
2022-11-25T10:36:44.219Z,13.73
2022-11-25T10:39:20.062Z,14.45
2022-11-25T10:41:52.531Z,15.20
2022-11-25T10:44:34.020Z,15.67
2022-11-25T10:47:22.691Z,16.35
2022-11-25T10:50:11.023Z,15.30
2022-11-25T10:52:59.906Z,11.70
2022-11-25T10:55:31.679Z,15.75
2022-11-25T10:57:59.469Z,15.90
2022-11-25T11:00:25.933Z,17.33
2022-11-25T11:02:52.840Z,18.30
2022-11-25T11:05:24.661Z,14.05
2022-11-25T11:08:13.907Z,17.73
2022-11-25T11:10:40.685Z,9.63
2022-11-25T11:13:23.391Z,9.73
2022-11-25T11:15:50.771Z,9.88
2022-11-25T11:18:28.284Z,15.10
2022-11-25T11:20:59.944Z,13.77
2022-11-25T11:23:28.105Z,13.70
2022-11-25T11:26:09.764Z,11.00
2022-11-25T11:28:39.318Z,9.68
2022-11-25T11:31:17.989Z,17.50
2022-11-25T11:33:47.444Z,12.93
2022-11-25T11:36:31.508Z,9.33
2022-11-25T11:39:18.199Z,11.57
2022-11-25T11:42:06.094Z,7.07
2022-11-25T11:45:12.536Z,8.88
2022-11-25T11:48:10.250Z,9.60
2022-11-25T11:50:42.771Z,11.87
2022-11-25T11:53:22.262Z,11.38
2022-11-25T11:56:27.039Z,11.77
2022-11-25T11:59:31.541Z,11.60
2022-11-25T12:02:23.494Z,12.20
2022-11-25T12:05:11.335Z,10.20
2022-11-25T12:07:55.069Z,11.93
2022-11-25T12:10:53.309Z,10.63
2022-11-25T12:13:48.181Z,11.98
2022-11-25T12:16:27.255Z,12.38
2022-11-25T12:18:57.074Z,13.70
2022-11-25T12:21:45.271Z,11.52
2022-11-25T12:24:36.317Z,14.38
2022-11-25T12:27:05.813Z,11.65
2022-11-25T12:29:53.423Z,10.88
2022-11-25T12:32:45.450Z,12.17
2022-11-25T12:35:11.856Z,8.82
2022-11-25T12:37:43.515Z,14.45
2022-11-25T12:40:17.361Z,10.20
2022-11-25T12:42:46.382Z,12.68
2022-11-25T12:45:22.774Z,16.47
2022-11-25T12:47:49.829Z,7.72
2022-11-25T12:50:29.749Z,14.30
2022-11-25T12:53:17.525Z,12.85
2022-11-25T12:55:44.031Z,9.27
2022-11-25T12:58:40.689Z,16.73
2022-11-25T13:01:32.572Z,9.35
2022-11-25T13:04:24.059Z,13.50
2022-11-25T13:06:56.713Z,5.68
2022-11-25T13:09:41.928Z,7.18
2022-11-25T13:12:27.003Z,14.83
2022-11-25T13:14:53.923Z,11.60
2022-11-25T13:17:22.747Z,12.00
2022-11-25T13:19:49.619Z,13.10
2022-11-25T13:22:22.237Z,9.95
2022-11-25T13:24:49.528Z,13.77
2022-11-25T13:27:52.601Z,9.77
2022-11-25T13:30:51.574Z,12.13
2022-11-25T13:33:18.095Z,11.63
2022-11-25T13:35:44.508Z,12.90
2022-11-25T13:38:29.258Z,10.50
2022-11-25T13:41:19.765Z,15.10
2022-11-25T13:44:01.611Z,9.55
2022-11-25T13:46:52.281Z,10.25
2022-11-25T13:49:57.993Z,11.40
2022-11-25T13:52:38.082Z,14.73
2022-11-25T13:55:29.384Z,10.20
2022-11-25T13:58:09.893Z,12.20
2022-11-25T14:00:36.461Z,13.35
2022-11-25T14:03:32.390Z,8.70
2022-11-25T14:06:14.162Z,11.90
2022-11-25T14:08:56.284Z,14.30
2022-11-25T14:11:41.492Z,11.10
2022-11-25T14:14:49.656Z,12.48
2022-11-25T14:17:48.285Z,19.55
2022-11-25T14:20:29.521Z,13.23
2022-11-25T14:23:26.078Z,12.63
2022-11-25T14:26:01.721Z,17.27
2022-11-25T14:28:40.380Z,12.20
2022-11-25T14:31:15.911Z,11.45
2022-11-25T14:33:55.743Z,15.50
2022-11-25T14:36:29.130Z,12.32
2022-11-25T14:38:59.931Z,10.65
2022-11-25T14:41:36.418Z,16.65
2022-11-25T14:44:11.586Z,14.82
2022-11-25T14:46:55.177Z,13.20
2022-11-25T14:49:45.213Z,10.90
2022-11-25T14:52:10.995Z,18.63
2022-11-25T14:54:43.460Z,11.02
2022-11-25T14:57:10.586Z,13.43
2022-11-25T14:59:42.254Z,10.57
2022-11-25T15:02:42.143Z,13.88
2022-11-25T15:05:14.445Z,14.68
2022-11-25T15:07:43.012Z,17.00
2022-11-25T15:10:43.216Z,12.23
2022-11-25T15:13:22.898Z,13.17
2022-11-25T15:15:51.270Z,11.85
2022-11-25T15:18:21.752Z,8.52
2022-11-25T15:20:53.336Z,14.25
2022-11-25T15:23:26.741Z,14.60
2022-11-25T15:25:54.564Z,18.93
2022-11-25T15:28:21.113Z,12.20
2022-11-25T15:30:59.693Z,14.48
2022-11-25T15:33:28.595Z,19.70
2022-11-25T15:35:55.803Z,13.00
2022-11-25T15:38:37.342Z,12.83
2022-11-25T15:41:06.074Z,11.45
2022-11-25T15:43:36.287Z,14.80
2022-11-25T15:46:05.364Z,14.05
2022-11-25T15:48:40.655Z,14.43
2022-11-25T15:51:21.469Z,13.53
2022-11-25T15:53:54.428Z,11.98
2022-11-25T15:56:25.094Z,14.10
2022-11-25T15:58:51.578Z,14.02
2022-11-25T16:01:18.193Z,14.23
2022-11-25T16:03:45.791Z,17.13
2022-11-25T16:06:23.912Z,16.98
2022-11-25T16:09:00.103Z,10.70
2022-11-25T16:11:33.760Z,10.35
2022-11-25T16:14:37.015Z,13.68
2022-11-25T16:17:11.251Z,17.23
2022-11-25T16:19:43.845Z,15.25
2022-11-25T16:22:15.887Z,21.33
2022-11-25T16:24:58.704Z,11.00
2022-11-25T16:27:29.360Z,10.50
2022-11-25T16:29:56.025Z,14.30
2022-11-25T16:32:28.613Z,13.95
2022-11-25T16:35:00.710Z,15.00
2022-11-25T16:37:27.197Z,15.23
2022-11-25T16:39:53.647Z,16.52
2022-11-25T16:42:21.916Z,20.90
2022-11-25T16:44:51.266Z,15.30
2022-11-25T16:47:19.433Z,10.95
2022-11-25T16:49:46.607Z,18.77
2022-11-25T16:52:13.778Z,15.23
2022-11-25T16:54:41.034Z,15.93
2022-11-25T16:57:13.890Z,16.52
2022-11-25T16:59:43.077Z,15.63
2022-11-25T17:02:28.042Z,10.98
2022-11-25T17:04:57.682Z,13.45
2022-11-25T17:07:32.661Z,16.30
2022-11-25T17:09:59.969Z,17.33
2022-11-25T17:12:30.576Z,21.63
2022-11-25T17:14:59.813Z,19.75
2022-11-25T17:17:28.171Z,18.10
2022-11-25T17:19:54.744Z,21.53
2022-11-25T17:22:26.422Z,22.75
2022-11-25T17:24:53.863Z,18.63
2022-11-25T17:27:26.825Z,14.60
2022-11-25T17:29:55.867Z,18.30
2022-11-25T17:32:23.051Z,15.13
2022-11-25T17:34:49.617Z,15.13
2022-11-25T17:37:19.358Z,16.38
2022-11-25T17:39:45.945Z,21.40
2022-11-25T17:42:17.474Z,24.17
2022-11-25T17:44:49.819Z,22.50
2022-11-25T17:47:19.472Z,22.38
2022-11-25T17:49:46.005Z,15.60
2022-11-25T17:52:12.479Z,27.92
2022-11-25T17:54:39.789Z,24.42
2022-11-25T17:57:08.037Z,19.83
2022-11-25T17:59:35.564Z,25.95
2022-11-25T18:02:02.457Z,21.67
2022-11-25T18:04:35.568Z,20.38
2022-11-25T18:07:02.289Z,19.83
2022-11-25T18:09:28.743Z,21.23
2022-11-25T18:11:59.504Z,16.92
2022-11-25T18:14:36.760Z,17.73
2022-11-25T18:17:06.242Z,23.15
2022-11-25T18:19:34.142Z,13.95
2022-11-25T18:22:10.502Z,19.30
2022-11-25T18:24:37.319Z,19.40
2022-11-25T18:27:05.857Z,19.75
2022-11-25T18:29:32.717Z,20.35
2022-11-25T18:31:59.674Z,20.00
2022-11-25T18:34:26.738Z,19.33
2022-11-25T18:36:54.029Z,15.70
2022-11-25T18:39:20.623Z,25.10
2022-11-25T18:41:48.290Z,21.27
2022-11-25T18:44:26.093Z,20.35
2022-11-25T18:46:53.535Z,20.63
2022-11-25T18:49:20.448Z,27.15
2022-11-25T18:51:47.563Z,21.85
2022-11-25T18:54:14.037Z,13.40
2022-11-25T18:56:41.626Z,19.90
2022-11-25T18:59:14.593Z,15.80
2022-11-25T19:01:44.167Z,15.70
2022-11-25T19:04:16.607Z,15.98
2022-11-25T19:06:43.712Z,25.80
2022-11-25T19:09:10.276Z,13.77
2022-11-25T19:11:41.777Z,19.60
2022-11-25T19:14:15.652Z,19.80
2022-11-25T19:16:43.506Z,22.50
2022-11-25T19:19:14.256Z,21.67
2022-11-25T19:21:40.732Z,31.20
2022-11-25T19:24:16.232Z,26.53
2022-11-25T19:26:48.916Z,20.38
2022-11-25T19:29:20.808Z,25.52
2022-11-25T19:31:49.427Z,29.02
2022-11-25T19:34:43.675Z,35.75
2022-11-25T19:37:19.914Z,27.90
2022-11-25T19:39:48.906Z,22.00
2022-11-25T19:42:15.586Z,23.30
2022-11-25T19:44:42.671Z,22.15
2022-11-25T19:47:19.092Z,18.40
2022-11-25T19:49:45.874Z,24.50
2022-11-25T19:52:15.958Z,21.13
2022-11-25T19:54:42.771Z,19.40
2022-11-25T19:57:16.656Z,22.42
2022-11-25T19:59:44.550Z,23.15
2022-11-25T20:02:23.209Z,27.47
2022-11-25T20:04:54.060Z,18.38
2022-11-25T20:07:21.484Z,27.55
2022-11-25T20:09:49.315Z,29.50
2022-11-25T20:12:22.507Z,32.45
2022-11-25T20:14:49.949Z,35.43
2022-11-25T20:17:26.374Z,24.52
2022-11-25T20:19:55.754Z,29.70
2022-11-25T20:22:26.421Z,31.38
2022-11-25T20:24:54.712Z,23.25
2022-11-25T20:27:25.193Z,23.80
2022-11-25T20:29:51.700Z,24.33
2022-11-25T20:32:18.147Z,23.40
2022-11-25T20:34:44.937Z,25.25
2022-11-25T20:37:15.884Z,31.70
2022-11-25T20:39:44.909Z,22.67
2022-11-25T20:42:12.512Z,22.05
2022-11-25T20:44:39.874Z,25.00
2022-11-25T20:47:14.862Z,22.77
2022-11-25T20:49:41.421Z,26.98
2022-11-25T20:52:18.399Z,28.50
2022-11-25T20:54:45.049Z,24.17
2022-11-25T20:57:11.608Z,27.27
2022-11-25T20:59:38.440Z,22.25
2022-11-25T21:02:05.082Z,25.77
2022-11-25T21:04:31.556Z,29.20
2022-11-25T21:07:00.849Z,27.83
2022-11-25T21:09:32.594Z,19.48
2022-11-25T21:11:59.231Z,26.35
2022-11-25T21:14:25.703Z,15.98
2022-11-25T21:16:52.328Z,24.93
2022-11-25T21:19:18.838Z,20.95
2022-11-25T21:21:48.337Z,25.77
2022-11-25T21:24:32.954Z,21.58
2022-11-25T21:27:02.732Z,20.27
2022-11-25T21:29:30.069Z,21.50
2022-11-25T21:31:56.858Z,18.17
2022-11-25T21:34:23.450Z,22.45
2022-11-25T21:36:52.537Z,18.65
2022-11-25T21:39:24.956Z,33.22
2022-11-25T21:41:51.563Z,18.93
2022-11-25T21:44:28.772Z,22.83
2022-11-25T21:46:55.425Z,25.67
2022-11-25T21:49:22.149Z,22.48
2022-11-25T21:51:48.672Z,17.83
2022-11-25T21:54:15.261Z,19.97
2022-11-25T21:56:41.751Z,22.52
2022-11-25T21:59:17.118Z,28.08
2022-11-25T22:01:43.721Z,25.60
2022-11-25T22:04:14.311Z,26.48
2022-11-25T22:06:40.880Z,26.53
2022-11-25T22:09:07.789Z,22.35
2022-11-25T22:11:37.383Z,24.38
2022-11-25T22:14:07.936Z,23.52
2022-11-25T22:16:36.624Z,26.92
2022-11-25T22:19:03.793Z,19.50
2022-11-25T22:21:30.333Z,23.80
2022-11-25T22:23:56.809Z,18.52
2022-11-25T22:26:30.018Z,18.60
2022-11-25T22:28:57.319Z,21.33
2022-11-25T22:31:24.529Z,21.13
2022-11-25T22:33:51.580Z,22.92
2022-11-25T22:36:39.909Z,25.88
2022-11-25T22:39:15.051Z,25.77
2022-11-25T22:41:48.986Z,21.50
2022-11-25T22:44:37.895Z,24.07
2022-11-25T22:47:05.251Z,20.20
2022-11-25T22:49:42.090Z,17.48
2022-11-25T22:52:21.931Z,22.63
2022-11-25T22:54:49.411Z,20.42
2022-11-25T22:57:16.825Z,19.53
2022-11-25T22:59:43.622Z,19.70
2022-11-25T23:02:22.732Z,21.48
2022-11-25T23:04:53.660Z,19.35
2022-11-25T23:07:21.597Z,18.23
2022-11-25T23:09:48.436Z,17.30
2022-11-25T23:12:16.797Z,21.73
2022-11-25T23:14:44.333Z,22.40
2022-11-25T23:17:19.287Z,23.88
2022-11-25T23:19:46.088Z,18.67
2022-11-25T23:22:12.652Z,19.90
2022-11-25T23:24:42.834Z,20.60
2022-11-25T23:27:09.357Z,18.55
2022-11-25T23:29:36.260Z,23.98
2022-11-25T23:32:06.143Z,18.60
2022-11-25T23:34:33.937Z,14.53
2022-11-25T23:37:01.039Z,19.55
2022-11-25T23:39:27.848Z,17.95
2022-11-25T23:41:54.519Z,19.10
2022-11-25T23:44:27.216Z,21.40
2022-11-25T23:46:57.760Z,18.50
2022-11-25T23:49:30.364Z,19.08
2022-11-25T23:52:06.037Z,15.45
2022-11-25T23:54:44.417Z,18.50
2022-11-25T23:57:30.009Z,23.85
2022-11-25T23:59:56.611Z,14.30
